createdAt,value
2023-03-17T17:13:15.397Z,14.60
2023-03-17T17:18:21.997Z,14.30
2023-03-17T17:23:29.249Z,14.20
2023-03-17T17:28:39.467Z,14.30
2023-03-17T17:33:45.236Z,14.50
2023-03-17T17:38:51.999Z,14.50
2023-03-17T17:43:59.860Z,14.50
2023-03-17T17:49:05.266Z,14.50
2023-03-17T17:54:10.920Z,14.50
2023-03-17T17:59:18.718Z,14.50
2023-03-17T18:04:24.629Z,14.50
2023-03-17T18:09:31.882Z,14.40
2023-03-17T18:14:39.946Z,14.40
2023-03-17T18:19:45.163Z,14.30
2023-03-17T18:24:50.567Z,14.30
2023-03-17T18:29:58.465Z,14.30
2023-03-17T18:35:07.075Z,14.30
2023-03-17T18:40:18.100Z,14.30
2023-03-17T18:45:26.742Z,14.20
2023-03-17T18:50:32.595Z,14.20
2023-03-17T18:55:37.912Z,14.20
2023-03-17T19:00:45.991Z,14.10
2023-03-17T19:05:51.668Z,14.10
2023-03-17T19:10:56.752Z,14.00
2023-03-17T19:16:04.643Z,14.00
2023-03-17T19:21:10.280Z,14.00
2023-03-17T19:26:15.506Z,14.00
2023-03-17T19:31:24.847Z,14.00
2023-03-17T19:36:30.142Z,14.00
2023-03-17T19:41:35.572Z,14.00
2023-03-17T19:46:43.313Z,14.00
2023-03-17T19:51:49.079Z,14.00
2023-03-17T19:56:54.520Z,14.00
2023-03-17T20:02:02.286Z,14.00
2023-03-17T20:07:07.558Z,14.00
2023-03-17T20:12:12.650Z,13.90
2023-03-17T20:17:20.968Z,13.90
2023-03-17T20:22:26.181Z,14.00
2023-03-17T20:27:32.215Z,13.90
2023-03-17T20:32:40.052Z,13.90
2023-03-17T20:37:45.899Z,13.80
2023-03-17T20:42:52.019Z,13.70
2023-03-17T20:48:00.869Z,13.70
2023-03-17T20:53:06.088Z,13.60
2023-03-17T20:58:13.612Z,13.50
2023-03-17T21:03:21.352Z,13.30
2023-03-17T21:08:26.726Z,13.20
2023-03-17T21:13:33.062Z,13.10
2023-03-17T21:18:40.906Z,13.00
2023-03-17T21:23:46.193Z,12.90
2023-03-17T21:28:52.666Z,12.70
2023-03-17T21:34:00.524Z,12.70
2023-03-17T21:39:06.722Z,12.60
2023-03-17T21:44:15.967Z,12.60
2023-03-17T21:49:24.871Z,12.60
2023-03-17T21:54:30.419Z,12.60
2023-03-17T21:59:35.840Z,12.50
2023-03-17T22:04:43.748Z,12.50
2023-03-17T22:09:48.976Z,12.40
2023-03-17T22:14:54.309Z,12.40
2023-03-17T22:20:02.322Z,12.50
2023-03-17T22:25:08.888Z,12.40
2023-03-17T22:30:15.738Z,12.40
2023-03-17T22:35:25.070Z,12.40
